Time;durP1;ratioP1;P1;durP2;ratioP2;P2;SDS_P1;SDS_P2;PMS_P1;PMS_P2;Temp;Humidity;BMP_temperature;BMP_pressure;BME280_temperature;BME280_humidity;BME280_pressure;Samples;Min_cycle;Max_cycle;Signal;HPM_P1;HPM_P2
2023/09/24 00:02:27;;;;;;;11.00;7.20;;;;;;;12.75;100.00;99250.73;137123;1272;22376;-80
2023/09/24 00:05:30;;;;;;;10.10;6.20;;;;;;;12.73;100.00;99259.63;137482;1272;22544;-80
2023/09/24 00:08:31;;;;;;;6.80;6.00;;;;;;;12.73;100.00;99262.92;137458;1272;22380;-80
2023/09/24 00:11:32;;;;;;;10.40;6.30;;;;;;;12.72;100.00;99268.51;136996;1272;22111;-80
2023/09/24 00:14:33;;;;;;;8.60;6.00;;;;;;;12.70;100.00;99268.14;137166;1272;22534;-79
2023/09/24 00:17:34;;;;;;;9.40;6.20;;;;;;;12.70;100.00;99267.27;137712;1272;22431;-79
2023/09/24 00:20:35;;;;;;;15.30;6.00;;;;;;;12.70;100.00;99260.81;137076;1272;22179;-80
2023/09/24 00:23:36;;;;;;;9.70;5.20;;;;;;;12.67;100.00;99261.65;137239;1272;24180;-80
2023/09/24 00:26:38;;;;;;;9.40;5.70;;;;;;;12.64;100.00;99260.05;137694;1272;22169;-79
2023/09/24 00:29:40;;;;;;;7.20;6.00;;;;;;;12.62;100.00;99251.30;137193;1272;22524;-80
2023/09/24 00:32:41;;;;;;;6.10;5.40;;;;;;;12.60;100.00;99253.38;137266;1272;22261;-79
2023/09/24 00:35:42;;;;;;;12.00;5.60;;;;;;;12.59;100.00;99256.50;137704;1272;22535;-79
2023/09/24 00:38:43;;;;;;;10.30;6.30;;;;;;;12.57;100.00;99254.73;137308;1272;22536;-79
2023/09/24 00:41:46;;;;;;;8.90;6.60;;;;;;;12.55;100.00;99262.58;136992;1272;22147;-80
2023/09/24 00:44:47;;;;;;;9.70;5.90;;;;;;;12.53;100.00;99267.96;137309;1272;22529;-79
2023/09/24 00:47:48;;;;;;;7.90;6.10;;;;;;;12.51;100.00;99268.11;137441;1272;22594;-80
2023/09/24 00:50:49;;;;;;;6.30;5.50;;;;;;;12.51;100.00;99273.00;137146;1272;22144;-78
2023/09/24 00:53:51;;;;;;;9.70;7.00;;;;;;;12.49;100.00;99274.20;137145;1272;22549;-78
2023/09/24 00:56:52;;;;;;;11.40;6.00;;;;;;;12.47;100.00;99274.88;137703;1272;22836;-78
2023/09/24 00:59:55;;;;;;;9.20;6.20;;;;;;;12.46;100.00;99273.64;137082;1272;22117;-79
2023/09/24 01:02:57;;;;;;;6.30;5.70;;;;;;;12.44;100.00;99276.07;137023;1272;22240;-80
2023/09/24 01:05:58;;;;;;;11.20;5.90;;;;;;;12.41;100.00;99276.38;137677;1272;22612;-78
2023/09/24 01:08:59;;;;;;;12.20;6.20;;;;;;;12.39;100.00;99273.39;137123;1272;22138;-80
2023/09/24 01:12:03;;;;;;;8.00;6.00;;;;;;;12.35;100.00;99274.39;136932;1272;22171;-79
2023/09/24 01:15:08;;;;;;;10.20;5.90;;;;;;;12.32;100.00;99268.42;137376;1272;22539;-79
2023/09/24 01:18:10;;;;;;;11.30;5.70;;;;;;;12.32;100.00;99267.02;137475;1272;22564;-79
2023/09/24 01:21:11;;;;;;;7.40;5.90;;;;;;;12.30;100.00;99268.75;137039;1272;22551;-80
2023/09/24 01:24:12;;;;;;;9.00;6.70;;;;;;;12.27;100.00;99270.45;137070;1272;22533;-81
2023/09/24 01:27:14;;;;;;;13.00;6.70;;;;;;;12.24;100.00;99274.79;137711;1272;22141;-80
2023/09/24 01:30:15;;;;;;;12.60;7.00;;;;;;;12.21;100.00;99281.91;137105;1272;22327;-78
2023/09/24 01:33:16;;;;;;;7.90;6.40;;;;;;;12.19;100.00;99286.60;137065;1272;22197;-78
2023/09/24 01:36:19;;;;;;;9.30;7.00;;;;;;;12.15;100.00;99299.98;137759;1272;22180;-81
2023/09/24 01:39:25;;;;;;;9.90;6.50;;;;;;;12.12;100.00;99310.55;137076;1272;22144;-79
2023/09/24 01:42:27;;;;;;;10.30;7.50;;;;;;;12.12;100.00;99319.98;137070;1272;22245;-80
2023/09/24 01:45:28;;;;;;;8.90;6.80;;;;;;;12.12;100.00;99326.59;137330;1272;22533;-79
2023/09/24 01:48:29;;;;;;;9.20;6.30;;;;;;;12.11;100.00;99325.36;137448;1272;22268;-79
2023/09/24 01:51:31;;;;;;;14.60;6.40;;;;;;;12.11;100.00;99330.42;137106;1272;22193;-79
2023/09/24 01:54:32;;;;;;;9.90;6.20;;;;;;;12.12;100.00;99331.48;137193;1272;25393;-79
2023/09/24 01:57:33;;;;;;;10.90;6.10;;;;;;;12.12;100.00;99333.75;137702;1272;22259;-80
2023/09/24 02:00:34;;;;;;;9.80;6.40;;;;;;;12.10;100.00;99341.75;137044;1272;22206;-77
2023/09/24 02:03:35;;;;;;;12.50;6.60;;;;;;;12.09;100.00;99340.16;137124;1272;24129;-79
2023/09/24 02:06:37;;;;;;;6.40;5.80;;;;;;;12.09;100.00;99343.48;137686;1272;22590;-79
2023/09/24 02:09:38;;;;;;;11.10;6.50;;;;;;;12.10;100.00;99341.92;137105;1272;22156;-80
2023/09/24 02:12:39;;;;;;;7.10;6.10;;;;;;;12.10;100.00;99338.61;137021;1272;22214;-79
2023/09/24 02:15:40;;;;;;;7.00;6.20;;;;;;;12.13;100.00;99335.51;137531;1272;22542;-79
2023/09/24 02:18:42;;;;;;;11.30;6.10;;;;;;;12.13;100.00;99332.38;137303;1272;22402;-78
2023/09/24 02:21:43;;;;;;;6.60;6.00;;;;;;;12.11;100.00;99337.39;137033;1272;22546;-79
2023/09/24 02:24:44;;;;;;;8.00;6.00;;;;;;;12.10;100.00;99347.15;137235;1272;22537;-80
2023/09/24 02:27:46;;;;;;;10.50;6.20;;;;;;;12.11;100.00;99357.64;137444;1272;22474;-80
2023/09/24 02:30:47;;;;;;;11.60;6.70;;;;;;;12.15;100.00;99362.26;136892;1272;22532;-80
2023/09/24 02:33:49;;;;;;;6.90;6.20;;;;;;;12.18;100.00;99362.66;137070;1272;22557;-80
2023/09/24 02:36:52;;;;;;;14.70;6.20;;;;;;;12.22;100.00;99370.73;137674;1272;22219;-80
2023/09/24 02:39:54;;;;;;;8.00;6.00;;;;;;;12.24;100.00;99375.98;136915;1272;22520;-79
2023/09/24 02:42:55;;;;;;;6.60;5.90;;;;;;;12.24;100.00;99367.27;137049;1272;22154;-80
2023/09/24 02:45:56;;;;;;;9.50;6.10;;;;;;;12.26;100.00;99363.98;137634;1272;22806;-80
2023/09/24 02:48:57;;;;;;;15.20;6.00;;;;;;;12.29;100.00;99372.23;136977;1272;25401;-79
2023/09/24 02:51:59;;;;;;;6.60;6.00;;;;;;;12.34;100.00;99382.06;137087;1272;22152;-79
2023/09/24 02:55:00;;;;;;;10.00;6.00;;;;;;;12.38;100.00;99380.73;137618;1272;22540;-79
2023/09/24 02:58:03;;;;;;;7.60;6.50;;;;;;;12.39;100.00;99387.02;137204;1272;22241;-80
2023/09/24 03:01:05;;;;;;;11.60;6.30;;;;;;;12.41;100.00;99392.63;137055;1272;22608;-79
2023/09/24 03:04:07;;;;;;;10.40;7.00;;;;;;;12.42;100.00;99393.52;137264;1272;22592;-79
2023/09/24 03:07:09;;;;;;;7.10;6.20;;;;;;;12.42;100.00;99396.48;137367;1272;23029;-78
2023/09/24 03:10:10;;;;;;;8.60;6.60;;;;;;;12.41;100.00;99408.33;137055;1272;22379;-79
2023/09/24 03:13:11;;;;;;;6.60;5.90;;;;;;;12.38;100.00;99418.25;137119;1272;22517;-79
2023/09/24 03:16:13;;;;;;;7.10;6.30;;;;;;;12.39;100.00;99418.07;137579;1272;22261;-79
2023/09/24 03:19:14;;;;;;;6.80;6.00;;;;;;;12.37;100.00;99418.77;137043;1272;22268;-80
2023/09/24 03:22:15;;;;;;;10.20;6.10;;;;;;;12.34;100.00;99426.58;137052;1272;22584;-78
2023/09/24 03:25:16;;;;;;;8.20;5.30;;;;;;;12.31;100.00;99432.45;137754;1272;22211;-78
2023/09/24 03:28:17;;;;;;;9.00;6.30;;;;;;;12.30;100.00;99428.59;136950;1272;22625;-79
2023/09/24 03:31:18;;;;;;;8.80;6.10;;;;;;;12.29;100.00;99432.24;137043;1272;22197;-79
2023/09/24 03:34:20;;;;;;;9.00;5.80;;;;;;;12.27;100.00;99436.23;137473;1272;22637;-79
2023/09/24 03:37:22;;;;;;;7.90;6.30;;;;;;;12.27;100.00;99435.20;137292;1272;22218;-79
2023/09/24 03:40:26;;;;;;;9.10;6.90;;;;;;;12.25;100.00;99438.83;137156;1272;22272;-80
2023/09/24 03:43:27;;;;;;;9.50;6.80;;;;;;;12.23;100.00;99440.20;137292;1272;22529;-81
2023/09/24 03:46:28;;;;;;;10.70;6.80;;;;;;;12.20;100.00;99435.09;137478;1272;22582;-80
2023/09/24 03:49:30;;;;;;;7.60;6.70;;;;;;;12.17;100.00;99437.66;137119;1272;22420;-78
2023/09/24 03:52:31;;;;;;;7.90;7.20;;;;;;;12.17;100.00;99439.75;137030;1272;22631;-78
2023/09/24 03:55:35;;;;;;;7.60;6.60;;;;;;;12.17;100.00;99445.85;137659;1272;22192;-78
2023/09/24 03:58:36;;;;;;;11.90;6.70;;;;;;;12.16;100.00;99451.60;137189;1272;22838;-78
2023/09/24 04:01:39;;;;;;;9.20;6.90;;;;;;;12.17;100.00;99453.02;137743;1271;22245;-78
2023/09/24 04:04:42;;;;;;;7.80;6.70;;;;;;;12.17;100.00;99457.38;137754;1272;22092;-78
2023/09/24 04:07:43;;;;;;;7.60;6.50;;;;;;;12.18;100.00;99454.25;137228;1272;22204;-78
2023/09/24 04:10:44;;;;;;;8.30;6.60;;;;;;;12.18;100.00;99453.90;137773;1272;22814;-78
2023/09/24 04:13:45;;;;;;;7.10;6.10;;;;;;;12.15;100.00;99455.61;137380;1272;24915;-78
2023/09/24 04:16:46;;;;;;;11.90;7.20;;;;;;;12.14;100.00;99455.58;137482;1260;22227;-78
2023/09/24 04:19:48;;;;;;;8.90;7.40;;;;;;;12.12;100.00;99467.05;137790;1272;22146;-79
2023/09/24 04:22:49;;;;;;;11.30;6.70;;;;;;;12.08;100.00;99468.90;137720;1272;22465;-78
2023/09/24 04:25:52;;;;;;;10.50;7.00;;;;;;;12.08;100.00;99467.67;137768;1269;22174;-79
2023/09/24 04:28:54;;;;;;;7.70;6.90;;;;;;;12.08;100.00;99461.40;137214;1272;22213;-79
2023/09/24 04:31:55;;;;;;;7.20;6.50;;;;;;;12.10;100.00;99458.80;137135;1272;22244;-79
2023/09/24 04:34:59;;;;;;;8.40;6.60;;;;;;;12.13;100.00;99460.60;137643;1272;22537;-81
2023/09/24 04:38:00;;;;;;;8.20;6.40;;;;;;;12.99;100.00;99466.20;137202;1272;22370;-80
2023/09/24 04:41:01;;;;;;;10.10;6.30;;;;;;;14.03;100.00;99467.63;137086;1272;22767;-80
2023/09/24 04:44:02;;;;;;;7.40;5.70;;;;;;;14.79;100.00;99470.29;137425;1272;22537;-82
2023/09/24 04:47:04;;;;;;;7.00;5.40;;;;;;;15.26;100.00;99471.88;137288;1272;22530;-80
2023/09/24 04:50:05;;;;;;;8.20;5.70;;;;;;;16.10;100.00;99476.44;137121;1272;22150;-80
2023/09/24 04:53:06;;;;;;;9.50;4.80;;;;;;;16.42;100.00;99485.90;137174;1272;22533;-83
2023/09/24 04:56:11;;;;;;;13.50;5.60;;;;;;;16.05;100.00;99489.61;137611;1272;22639;-79
2023/09/24 04:59:12;;;;;;;11.60;4.90;;;;;;;15.77;100.00;99491.71;136966;1272;22537;-79
2023/09/24 05:02:13;;;;;;;6.30;4.10;;;;;;;15.88;100.00;99498.39;137130;1272;22530;-79
2023/09/24 05:05:15;;;;;;;7.20;4.40;;;;;;;15.87;100.00;99501.37;137664;1272;22254;-80
2023/09/24 05:08:16;;;;;;;8.20;4.30;;;;;;;16.01;100.00;99510.33;137129;1272;22240;-80
2023/09/24 05:11:17;;;;;;;4.90;4.50;;;;;;;15.76;100.00;99514.16;137196;1272;22516;-77
2023/09/24 05:14:18;;;;;;;10.10;4.80;;;;;;;15.28;100.00;99518.52;137551;1272;22461;-77
2023/09/24 05:17:19;;;;;;;5.80;4.30;;;;;;;14.68;100.00;99517.00;137384;1272;22199;-77
2023/09/24 05:20:20;;;;;;;4.90;4.40;;;;;;;14.28;100.00;99523.69;137150;1272;22263;-78
2023/09/24 05:23:21;;;;;;;7.00;4.30;;;;;;;14.08;100.00;99528.95;137392;1272;22559;-79
2023/09/24 05:26:22;;;;;;;5.10;4.40;;;;;;;13.90;100.00;99532.11;137474;1272;22532;-78
2023/09/24 05:29:23;;;;;;;8.80;4.70;;;;;;;13.70;100.00;99545.52;136974;1272;22432;-80
2023/09/24 05:32:24;;;;;;;7.20;4.90;;;;;;;13.55;100.00;99557.95;137182;1272;22534;-79
2023/09/24 05:35:26;;;;;;;8.40;4.90;;;;;;;13.51;100.00;99559.13;137719;1272;22166;-76
2023/09/24 05:38:29;;;;;;;6.00;4.70;;;;;;;13.46;100.00;99566.77;137036;1272;22540;-77
2023/09/24 05:41:30;;;;;;;6.10;4.60;;;;;;;13.43;100.00;99570.40;137039;1272;22628;-77
2023/09/24 05:44:32;;;;;;;5.90;5.00;;;;;;;13.41;100.00;99572.65;137688;1272;22541;-78
2023/09/24 05:47:33;;;;;;;9.50;5.70;;;;;;;13.39;100.00;99568.96;137113;1267;22296;-79
2023/09/24 05:50:34;;;;;;;8.90;5.30;;;;;;;13.42;100.00;99560.42;136985;1272;22799;-78
2023/09/24 05:53:35;;;;;;;5.70;5.20;;;;;;;13.43;100.00;99566.73;137532;1272;22548;-80
2023/09/24 05:56:36;;;;;;;10.00;5.50;;;;;;;13.37;100.00;99575.40;137222;1272;22514;-76
2023/09/24 05:59:38;;;;;;;7.60;5.30;;;;;;;13.31;100.00;99582.14;137049;1266;22307;-79
2023/09/24 06:02:40;;;;;;;5.40;4.90;;;;;;;13.29;100.00;99587.55;137327;1272;22550;-80
2023/09/24 06:05:41;;;;;;;9.80;5.40;;;;;;;13.32;100.00;99591.77;137533;1272;22647;-77
2023/09/24 06:08:43;;;;;;;7.50;5.20;;;;;;;13.32;100.00;99595.27;137103;1272;22162;-77
2023/09/24 06:11:44;;;;;;;9.90;7.40;;;;;;;13.38;100.00;99586.08;137051;1272;22537;-77
2023/09/24 06:14:45;;;;;;;15.20;9.10;;;;;;;13.39;100.00;99584.35;137687;1272;22924;-78
2023/09/24 06:17:47;;;;;;;8.70;7.50;;;;;;;13.40;100.00;99581.56;136940;1272;22513;-77
2023/09/24 06:20:48;;;;;;;6.20;5.70;;;;;;;13.39;100.00;99586.63;137007;1248;24180;-78
2023/09/24 06:23:49;;;;;;;8.80;6.70;;;;;;;13.42;100.00;99586.30;137646;1269;22584;-79
2023/09/24 06:26:50;;;;;;;6.00;5.50;;;;;;;13.44;100.00;99585.27;137166;1272;22136;-79
2023/09/24 06:29:51;;;;;;;8.80;6.00;;;;;;;13.41;100.00;99585.41;137019;1272;22362;-77
2023/09/24 06:32:57;;;;;;;7.10;6.10;;;;;;;13.38;100.00;99593.08;137437;1268;22559;-79
2023/09/24 06:35:58;;;;;;;8.20;6.00;;;;;;;13.40;100.00;99599.22;137391;1272;22427;-79
2023/09/24 06:38:59;;;;;;;7.80;6.60;;;;;;;13.43;100.00;99608.16;137012;1268;22792;-79
2023/09/24 06:42:01;;;;;;;8.20;7.40;;;;;;;13.35;100.00;99609.98;137206;1272;22541;-79
2023/09/24 06:45:02;;;;;;;6.90;6.20;;;;;;;13.29;100.00;99610.97;137624;1272;22571;-79
2023/09/24 06:48:03;;;;;;;14.80;7.30;;;;;;;13.27;100.00;99606.21;137005;1272;22569;-77
2023/09/24 06:51:04;;;;;;;7.20;6.40;;;;;;;13.29;100.00;99605.90;137105;1272;22200;-78
2023/09/24 06:54:05;;;;;;;7.70;6.90;;;;;;;13.35;100.00;99608.08;137704;1272;22241;-78
2023/09/24 06:57:06;;;;;;;6.40;5.80;;;;;;;13.39;100.00;99605.67;137065;1272;22149;-78
2023/09/24 07:00:08;;;;;;;8.00;6.30;;;;;;;13.39;100.00;99604.45;136946;1272;22162;-78
2023/09/24 07:03:10;;;;;;;6.70;6.10;;;;;;;13.42;100.00;99602.73;137531;1272;22532;-79
2023/09/24 07:06:11;;;;;;;7.80;6.40;;;;;;;13.46;100.00;99605.41;137235;1272;22192;-79
2023/09/24 07:09:12;;;;;;;9.10;5.80;;;;;;;13.58;100.00;99606.42;136860;1272;22156;-78
2023/09/24 07:12:13;;;;;;;7.70;6.10;;;;;;;13.77;100.00;99613.99;137192;1272;22544;-78
2023/09/24 07:15:16;;;;;;;8.60;6.10;;;;;;;13.93;100.00;99628.19;137371;1272;22582;-78
2023/09/24 07:18:19;;;;;;;8.50;5.90;;;;;;;14.02;100.00;99632.84;136992;1272;22434;-78
2023/09/24 07:21:20;;;;;;;8.70;5.90;;;;;;;14.06;100.00;99638.14;137784;1272;22437;-77
2023/09/24 07:24:23;;;;;;;5.80;5.30;;;;;;;14.11;100.00;99646.24;137720;1272;22815;-78
2023/09/24 07:27:24;;;;;;;5.80;5.30;;;;;;;14.15;100.00;99648.20;137185;1272;22257;-77
2023/09/24 07:30:26;;;;;;;6.40;5.40;;;;;;;14.15;100.00;99649.95;137323;1268;23377;-78
2023/09/24 07:33:27;;;;;;;6.10;5.50;;;;;;;14.21;100.00;99649.31;137718;1272;22164;-77
2023/09/24 07:36:28;;;;;;;6.70;5.10;;;;;;;14.36;100.00;99650.34;137761;1272;22236;-78
2023/09/24 07:39:29;;;;;;;5.80;5.20;;;;;;;14.57;100.00;99658.61;137077;1272;22249;-79
2023/09/24 07:42:30;;;;;;;8.80;6.10;;;;;;;14.75;100.00;99666.14;137480;1272;22551;-78
2023/09/24 07:45:35;;;;;;;6.30;5.60;;;;;;;14.85;100.00;99667.81;137420;1272;22210;-78
2023/09/24 07:48:36;;;;;;;6.00;5.50;;;;;;;14.92;100.00;99664.19;137043;1272;22573;-77
2023/09/24 07:51:37;;;;;;;7.00;5.60;;;;;;;14.94;100.00;99668.92;137280;1272;22640;-78
2023/09/24 07:54:38;;;;;;;6.00;5.30;;;;;;;14.98;100.00;99666.16;137682;1272;22544;-78
2023/09/24 07:57:39;;;;;;;7.70;5.00;;;;;;;15.05;100.00;99666.55;137060;1272;22205;-78
2023/09/24 08:00:43;;;;;;;7.90;5.10;;;;;;;15.06;100.00;99671.83;137195;1272;22342;-78
2023/09/24 08:03:45;;;;;;;5.50;5.00;;;;;;;15.03;100.00;99683.72;137704;1269;22333;-79
2023/09/24 08:06:53;;;;;;;6.40;5.50;;;;;;;15.07;100.00;99689.88;137047;1272;22540;-78
2023/09/24 08:09:54;;;;;;;5.80;5.30;;;;;;;15.19;100.00;99685.41;136921;1272;22563;-78
2023/09/24 08:12:55;;;;;;;8.90;5.40;;;;;;;15.32;100.00;99685.48;137425;1272;22484;-81
2023/09/24 08:15:56;;;;;;;8.10;5.20;;;;;;;15.35;100.00;99693.75;137359;1272;22857;-78
2023/09/24 08:18:58;;;;;;;6.50;5.20;;;;;;;15.42;100.00;99700.45;137045;1272;22592;-77
2023/09/24 08:21:59;;;;;;;9.80;5.50;;;;;;;15.54;100.00;99702.98;137215;1272;22533;-79
2023/09/24 08:25:00;;;;;;;10.30;5.30;;;;;;;15.64;100.00;99703.10;137636;1272;22132;-78
2023/09/24 08:28:01;;;;;;;5.40;4.80;;;;;;;15.80;100.00;99703.70;137067;1272;22231;-78
2023/09/24 08:31:02;;;;;;;5.60;5.00;;;;;;;15.90;100.00;99703.92;137032;1272;22563;-79
2023/09/24 08:34:03;;;;;;;6.00;5.40;;;;;;;15.91;100.00;99707.44;137726;1272;22725;-80
2023/09/24 08:37:04;;;;;;;4.60;4.20;;;;;;;15.89;100.00;99716.73;137110;1272;22496;-81
2023/09/24 08:40:06;;;;;;;5.30;4.90;;;;;;;16.34;100.00;99714.95;137097;1272;22201;-80
2023/09/24 08:43:07;;;;;;;5.30;4.80;;;;;;;17.19;100.00;99712.79;137525;1272;22527;-78
2023/09/24 08:46:08;;;;;;;5.30;4.80;;;;;;;17.25;100.00;99715.41;137314;1272;22466;-77
2023/09/24 08:49:10;;;;;;;7.30;4.50;;;;;;;17.19;100.00;99720.35;137140;1272;22563;-79
2023/09/24 08:52:11;;;;;;;5.10;4.20;;;;;;;17.12;100.00;99724.58;137304;1272;22562;-79
2023/09/24 08:55:12;;;;;;;4.50;4.10;;;;;;;17.14;100.00;99722.28;137466;1272;25230;-78
2023/09/24 08:58:13;;;;;;;6.60;4.30;;;;;;;17.17;100.00;99728.09;137067;1268;22256;-79
2023/09/24 09:01:14;;;;;;;7.70;4.00;;;;;;;17.09;100.00;99729.32;137176;1272;22578;-78
2023/09/24 09:04:15;;;;;;;5.40;4.50;;;;;;;17.00;100.00;99729.85;137687;1272;22130;-78
2023/09/24 09:07:18;;;;;;;8.60;4.60;;;;;;;16.96;100.00;99727.92;137020;1272;22542;-78
2023/09/24 09:10:20;;;;;;;4.60;4.20;;;;;;;16.99;100.00;99725.64;136943;1272;22550;-78
2023/09/24 09:13:21;;;;;;;5.20;4.30;;;;;;;17.12;100.00;99731.09;137688;1272;22097;-78
2023/09/24 09:16:23;;;;;;;4.20;3.80;;;;;;;17.17;100.00;99729.85;137084;1272;22546;-78
2023/09/24 09:19:24;;;;;;;6.20;3.80;;;;;;;17.20;100.00;99727.91;137062;1272;22172;-78
2023/09/24 09:22:25;;;;;;;3.90;3.50;;;;;;;17.25;100.00;99725.45;137427;1272;22523;-80
2023/09/24 09:25:27;;;;;;;3.70;3.40;;;;;;;17.30;100.00;99727.02;137440;1272;22190;-78
2023/09/24 09:28:28;;;;;;;4.50;3.70;;;;;;;17.37;100.00;99724.40;137096;1269;22800;-79
2023/09/24 09:31:29;;;;;;;5.50;3.80;;;;;;;17.41;100.00;99726.50;137186;1272;22550;-78
2023/09/24 09:34:30;;;;;;;4.20;3.80;;;;;;;17.53;100.00;99734.41;137546;1272;22223;-79
2023/09/24 09:37:31;;;;;;;4.30;3.90;;;;;;;17.58;100.00;99738.97;137119;1272;22199;-80
2023/09/24 09:40:32;;;;;;;5.50;4.20;;;;;;;17.50;100.00;99734.77;137009;1272;22546;-78
2023/09/24 09:43:35;;;;;;;3.90;3.60;;;;;;;17.39;100.00;99732.66;137565;1272;177060;-79
2023/09/24 09:46:36;;;;;;;4.70;3.60;;;;;;;17.43;100.00;99734.77;137081;1272;22858;-78
2023/09/24 09:49:37;;;;;;;5.00;3.60;;;;;;;17.49;100.00;99735.83;137217;1272;22407;-78
2023/09/24 09:52:38;;;;;;;4.10;3.00;;;;;;;17.59;100.00;99734.04;137627;1272;22586;-77
2023/09/24 09:55:40;;;;;;;6.30;3.10;;;;;;;17.75;100.00;99739.30;137268;1272;22375;-78
2023/09/24 09:58:46;;;;;;;3.20;3.00;;;;;;;17.82;100.00;99744.04;137297;1272;22696;-78
2023/09/24 10:01:47;;;;;;;3.70;2.60;;;;;;;17.84;100.00;99742.63;137411;1272;22540;-78
2023/09/24 10:04:48;;;;;;;4.00;2.70;;;;;;;17.96;100.00;99739.59;137496;1272;22548;-78
2023/09/24 10:07:50;;;;;;;2.80;2.40;;;;;;;17.98;100.00;99736.58;137219;1272;22262;-79
2023/09/24 10:10:51;;;;;;;2.50;2.20;;;;;;;17.94;100.00;99736.42;137150;1272;22567;-78
2023/09/24 10:13:52;;;;;;;2.60;2.00;;;;;;;17.96;100.00;99733.95;137627;1272;22226;-78
2023/09/24 10:16:53;;;;;;;3.00;2.10;;;;;;;18.05;100.00;99736.73;137071;1272;22229;-78
2023/09/24 10:19:54;;;;;;;2.40;2.10;;;;;;;18.08;100.00;99732.50;137660;1272;22203;-78
2023/09/24 10:22:55;;;;;;;4.70;2.30;;;;;;;18.04;100.00;99731.98;137757;1272;22803;-78
2023/09/24 10:25:59;;;;;;;2.90;2.10;;;;;;;18.11;100.00;99734.95;137087;1272;22183;-78
2023/09/24 10:29:00;;;;;;;4.00;2.10;;;;;;;18.19;100.00;99734.03;137714;1272;22405;-78
2023/09/24 10:32:01;;;;;;;2.70;2.10;;;;;;;18.26;100.00;99733.50;137649;1272;22139;-78
2023/09/24 10:35:02;;;;;;;2.50;2.30;;;;;;;18.32;100.00;99731.18;137457;1272;22224;-79
2023/09/24 10:38:03;;;;;;;3.80;2.50;;;;;;;18.34;100.00;99732.58;137289;1272;22424;-78
2023/09/24 10:41:05;;;;;;;2.60;2.10;;;;;;;18.41;100.00;99732.52;137727;1272;22279;-78
2023/09/24 10:44:06;;;;;;;3.60;2.20;;;;;;;18.51;100.00;99728.42;137769;1272;22309;-79
2023/09/24 10:47:07;;;;;;;5.30;2.10;;;;;;;18.54;100.00;99729.98;137341;1272;22380;-79
2023/09/24 10:50:09;;;;;;;4.10;2.30;;;;;;;18.55;100.00;99734.91;137498;1272;22559;-79
2023/09/24 10:53:10;;;;;;;2.50;2.00;;;;;;;18.63;100.00;99731.20;137757;1272;22217;-79
2023/09/24 10:56:11;;;;;;;4.50;2.40;;;;;;;18.68;100.00;99725.70;137310;1272;22411;-79
2023/09/24 10:59:12;;;;;;;3.50;2.70;;;;;;;18.64;100.00;99721.49;137268;1272;22237;-79
2023/09/24 11:02:13;;;;;;;5.00;2.40;;;;;;;18.58;100.00;99720.80;137713;1272;22534;-79
2023/09/24 11:05:15;;;;;;;3.80;2.30;;;;;;;18.56;100.00;99725.05;137060;1272;22557;-78
2023/09/24 11:08:16;;;;;;;2.80;1.70;;;;;;;18.49;100.00;99730.20;136980;1272;22165;-79
2023/09/24 11:11:17;;;;;;;2.30;2.10;;;;;;;18.49;100.00;99726.67;137390;1272;22542;-80
2023/09/24 11:14:22;;;;;;;3.50;2.10;;;;;;;18.51;100.00;99730.20;137158;1272;22120;-78
2023/09/24 11:17:23;;;;;;;2.30;1.90;;;;;;;18.58;100.00;99725.57;137020;1272;22556;-78
2023/09/24 11:20:25;;;;;;;2.50;2.30;;;;;;;18.56;100.00;99723.46;137176;1272;23654;-83
2023/09/24 11:23:26;;;;;;;2.20;1.70;;;;;;;18.58;100.00;99724.68;137479;1272;22712;-79
2023/09/24 11:26:28;;;;;;;2.10;1.90;;;;;;;18.64;100.00;99724.48;137142;1272;22567;-79
2023/09/24 11:29:29;;;;;;;6.10;1.90;;;;;;;18.65;100.00;99725.02;137012;1272;25426;-80
2023/09/24 11:32:33;;;;;;;3.20;2.20;;;;;;;18.72;100.00;99727.79;137677;1272;22431;-79
2023/09/24 11:35:35;;;;;;;1.90;1.70;;;;;;;18.75;100.00;99726.70;137081;1272;22470;-78
2023/09/24 11:38:38;;;;;;;2.70;2.00;;;;;;;18.75;100.00;99729.35;137160;1272;22189;-78
2023/09/24 11:41:39;;;;;;;2.80;1.80;;;;;;;18.82;100.00;99728.25;137524;1272;22601;-80
2023/09/24 11:44:40;;;;;;;2.50;1.90;;;;;;;18.95;100.00;99725.14;137064;1272;25343;-79
2023/09/24 11:47:41;;;;;;;3.00;1.80;;;;;;;18.92;100.00;99719.52;137084;1272;22568;-78
2023/09/24 11:50:44;;;;;;;2.20;1.90;;;;;;;19.05;100.00;99718.89;137465;1272;22481;-80
2023/09/24 11:53:45;;;;;;;3.60;2.00;;;;;;;19.15;100.00;99718.85;137355;1272;22709;-79
2023/09/24 11:56:49;;;;;;;1.80;1.70;;;;;;;19.16;100.00;99719.88;137037;1272;22571;-80
2023/09/24 11:59:50;;;;;;;2.00;1.80;;;;;;;19.27;100.00;99719.60;137231;1272;22533;-80
2023/09/24 12:02:51;;;;;;;2.00;1.90;;;;;;;19.24;100.00;99725.10;137626;1272;22378;-80
2023/09/24 12:05:52;;;;;;;1.90;1.70;;;;;;;19.27;100.00;99726.49;137089;1272;22191;-78
2023/09/24 12:08:53;;;;;;;1.90;1.40;;;;;;;19.32;100.00;99724.85;137105;1272;24983;-78
2023/09/24 12:11:54;;;;;;;1.90;1.50;;;;;;;19.35;100.00;99724.64;137708;1272;22446;-79
2023/09/24 12:14:55;;;;;;;1.70;1.40;;;;;;;19.43;100.00;99729.16;136987;1272;22175;-78
2023/09/24 12:17:57;;;;;;;2.40;1.50;;;;;;;19.49;100.00;99734.04;137016;1272;23031;-78
2023/09/24 12:20:58;;;;;;;2.30;1.20;;;;;;;19.79;100.00;99740.81;137513;1272;22621;-80
2023/09/24 12:23:59;;;;;;;2.50;1.50;;;;;;;19.96;100.00;99743.64;137213;1272;22206;-79
2023/09/24 12:27:00;;;;;;;1.60;1.50;;;;;;;20.07;100.00;99742.10;137093;1272;22382;-79
2023/09/24 12:30:01;;;;;;;1.90;1.60;;;;;;;20.10;100.00;99736.77;137383;1272;22531;-80
2023/09/24 12:33:02;;;;;;;2.10;1.50;;;;;;;19.97;100.00;99744.16;137527;1272;22210;-81
2023/09/24 12:36:03;;;;;;;1.30;1.20;;;;;;;19.88;100.00;99742.83;137143;1269;22600;-80
2023/09/24 12:39:05;;;;;;;2.80;1.60;;;;;;;19.85;100.00;99741.09;137129;1272;22549;-79
2023/09/24 12:42:06;;;;;;;1.30;1.20;;;;;;;19.77;100.00;99743.13;137679;1272;22285;-80
2023/09/24 12:45:07;;;;;;;2.00;1.60;;;;;;;19.54;100.00;99744.95;137052;1272;22535;-79
2023/09/24 12:48:08;;;;;;;2.20;1.40;;;;;;;19.31;100.00;99744.98;137077;1272;22238;-80
2023/09/24 12:51:09;;;;;;;1.50;1.40;;;;;;;19.12;100.00;99749.72;137729;1272;22672;-81
2023/09/24 12:54:10;;;;;;;3.00;1.60;;;;;;;19.03;100.00;99753.48;137089;1272;22153;-81
2023/09/24 12:57:12;;;;;;;1.60;1.50;;;;;;;18.98;100.00;99747.86;136998;1272;23002;-81
2023/09/24 13:00:13;;;;;;;2.70;1.70;;;;;;;18.98;100.00;99746.46;137497;1272;22540;-80
2023/09/24 13:03:14;;;;;;;2.70;1.70;;;;;;;19.10;100.00;99748.16;137403;1272;22140;-81
2023/09/24 13:06:15;;;;;;;3.20;1.90;;;;;;;19.21;100.00;99748.60;137191;1272;24164;-80
2023/09/24 13:09:17;;;;;;;1.70;1.60;;;;;;;19.29;100.00;99749.59;137304;1272;22550;-80
2023/09/24 13:12:18;;;;;;;2.40;1.60;;;;;;;19.36;100.00;99745.63;137646;1272;22463;-79
2023/09/24 13:15:19;;;;;;;3.00;1.70;;;;;;;19.44;100.00;99746.27;137004;1272;22206;-79
2023/09/24 13:18:20;;;;;;;3.70;1.70;;;;;;;19.55;100.00;99743.36;137057;1272;22647;-78
2023/09/24 13:21:21;;;;;;;1.40;1.30;;;;;;;19.63;100.00;99750.52;137650;1272;22185;-79
2023/09/24 13:24:22;;;;;;;2.00;1.50;;;;;;;19.60;100.00;99750.55;137121;1272;22302;-78
2023/09/24 13:27:23;;;;;;;2.20;1.60;;;;;;;19.65;100.00;99750.14;137033;1272;22652;-79
2023/09/24 13:30:24;;;;;;;6.30;1.40;;;;;;;19.62;100.00;99752.65;137606;1272;22645;-80
2023/09/24 13:33:25;;;;;;;1.90;1.40;;;;;;;19.60;100.00;99757.44;137171;1272;22470;-79
2023/09/24 13:36:27;;;;;;;5.10;1.70;;;;;;;19.64;100.00;99758.81;136988;1272;22270;-79
2023/09/24 13:39:28;;;;;;;2.10;1.90;;;;;;;19.72;100.00;99755.90;137458;1272;22556;-78
2023/09/24 13:42:29;;;;;;;2.30;1.50;;;;;;;19.90;100.00;99753.41;137467;1271;22265;-79
2023/09/24 13:45:30;;;;;;;1.60;1.50;;;;;;;20.15;100.00;99753.13;137148;1272;22198;-79
2023/09/24 13:48:31;;;;;;;2.70;1.30;;;;;;;20.26;85.52;99751.58;137233;1272;22538;-79
2023/09/24 13:51:35;;;;;;;3.90;1.60;;;;;;;20.26;63.32;99745.39;137720;1266;22170;-80
2023/09/24 13:54:36;;;;;;;1.40;1.30;;;;;;;20.25;62.56;99747.35;137183;1272;22452;-80